EIKN

Ireland West Airport Knock

Airport
ICAO code
EIKN
Summary
ICAO Region
EUR
ICAO Territory
Location

Charlestown, County Mayo,

Coordinates
53° 54' 51" N , 8° 48' 39" W
KCC
Airport BS
Bird Strike
Metar
Observation
EIKN 010830Z 18008KT 140V220 3500 BR OVC002 09/09 Q1024 NOSIG
Station
Connaught
Date/Time
2022-12-01 08:30:00
Wind direction
180°
Wind speed
08 kts
Lowest cloud amount
overcast
Temperature
9°C
Dew point
9°C
Humidity
100%
QNH
1024 hPa
Weather condition
n/a

Description

Ireland West Airport Knock (Irish: Aerfort Iarthar Éireann) is an airport located 3 NM south-west of Charlestown, County Mayo, Ireland. The airport was formerly known as Knock International Airport, Connacht Regional Airport, and Horan International Airport.

Climatology

Temperate Marine climate/Oceanic climate (Köppen climate classification Cfb). Moderately cool summer and comparatively warm winter with a temperature range of only 14°C. Prevailing south-westerly winds from the Atlantic Ocean.

Runways

Designator Length Width Surface Rops
9/27 2300 45 ASP Yes/Yes

Airport map

Aerial View

Airport accidents

SKYbrary Partners:

Safety knowledge contributed by: